South Kearny, New Jersey
Current Conditions -  °F | °C
As of 8:51 AM on Wednesday 28 Jan 2015 (Local Time) from KEWR Reporting Station
Scattered Clouds Scattered Clouds  
Wind Chill:   Ceiling: Unl
Heat Index: 20°   Visibility: 10mi
Dew Point:   Wind: 14mph
Humidity: 48%   Direction: 320°NW
Pressure: 30.04"   Gusts: 29mph
Location:  40.7563°N, 74.1217°W
Report Text: KEWR 281351Z 32012G25KT 10SM SCT100 SCT250 M07/M16 A3004 RMK AO2 SLP172 T10671161 $
Loading
Personal Weather Stations






























Interactive Weather Map New forecast layout! Learn more

10-Day Weather Forecast

Advertisements
Track Severe Weather on mobile